createdAt,value
2019-05-12T00:00:10.233Z,2.40
2019-05-12T00:01:10.264Z,2.60
2019-05-12T00:02:10.233Z,2.30
2019-05-12T00:03:10.209Z,2.40
2019-05-12T00:04:10.186Z,2.10
2019-05-12T00:05:10.189Z,2.50
2019-05-12T00:06:10.173Z,2.10
2019-05-12T00:07:10.228Z,2.20
2019-05-12T00:08:10.216Z,2.10
2019-05-12T00:09:10.134Z,2.00
2019-05-12T00:10:10.125Z,2.30
2019-05-12T00:11:10.126Z,2.30
2019-05-12T00:12:10.107Z,2.00
2019-05-12T00:13:10.106Z,2.50
2019-05-12T00:14:10.076Z,2.00
2019-05-12T00:15:10.069Z,2.00
2019-05-12T00:16:10.053Z,1.90
2019-05-12T00:17:10.042Z,2.10
2019-05-12T00:18:10.045Z,2.10
2019-05-12T00:19:10.036Z,2.10
2019-05-12T00:20:10.014Z,2.00
2019-05-12T00:21:10.007Z,1.80
2019-05-12T00:22:09.989Z,2.10
2019-05-12T00:23:24.024Z,1.70
2019-05-12T00:24:10.977Z,2.10
2019-05-12T00:25:23.403Z,1.90
2019-05-12T00:26:09.948Z,2.10
2019-05-12T00:27:09.937Z,1.90
2019-05-12T00:28:09.935Z,2.00
2019-05-12T00:29:09.978Z,2.10
2019-05-12T00:30:10.866Z,1.90
2019-05-12T00:31:10.381Z,1.70
2019-05-12T00:32:09.882Z,1.70
2019-05-12T00:33:09.876Z,1.80
2019-05-12T00:34:09.859Z,1.60
2019-05-12T00:35:09.883Z,1.90
2019-05-12T00:36:09.836Z,1.80
2019-05-12T00:37:09.836Z,1.70
2019-05-12T00:38:09.810Z,1.80
2019-05-12T00:39:09.802Z,1.70
2019-05-12T00:40:09.786Z,1.80
2019-05-12T00:41:09.869Z,1.60
2019-05-12T00:42:09.766Z,1.80
2019-05-12T00:43:09.760Z,1.90
2019-05-12T00:44:09.747Z,1.70
2019-05-12T00:45:09.735Z,1.40
2019-05-12T00:46:09.724Z,1.40
2019-05-12T00:47:09.756Z,1.50
2019-05-12T00:48:09.849Z,1.40
2019-05-12T00:49:09.716Z,1.60
2019-05-12T00:50:09.677Z,1.10
2019-05-12T00:51:09.670Z,1.10
2019-05-12T00:52:09.677Z,1.30
2019-05-12T00:53:09.884Z,1.10
2019-05-12T00:54:09.666Z,1.30
2019-05-12T00:55:09.621Z,1.20
2019-05-12T00:56:22.577Z,1.30
2019-05-12T00:57:09.599Z,1.10
2019-05-12T00:58:09.622Z,1.00
2019-05-12T00:59:09.590Z,1.00
2019-05-12T01:00:09.577Z,1.10
2019-05-12T01:01:09.567Z,0.90
2019-05-12T01:02:10.390Z,0.80
2019-05-12T01:03:09.535Z,0.80
2019-05-12T01:04:09.545Z,0.80
2019-05-12T01:05:09.512Z,0.70
2019-05-12T01:06:09.506Z,0.80
2019-05-12T01:07:09.493Z,0.60
2019-05-12T01:08:09.835Z,0.80
2019-05-12T01:09:09.469Z,1.00
2019-05-12T01:10:09.466Z,0.80
2019-05-12T01:11:09.444Z,0.60
2019-05-12T01:12:09.436Z,0.70
2019-05-12T01:13:09.441Z,0.80
2019-05-12T01:14:09.485Z,0.70
2019-05-12T01:15:09.424Z,0.80
2019-05-12T01:16:09.385Z,1.00
2019-05-12T01:17:09.380Z,0.70
2019-05-12T01:18:09.841Z,0.80
2019-05-12T01:19:09.363Z,0.90
2019-05-12T01:20:09.344Z,0.70
2019-05-12T01:21:09.333Z,0.80
2019-05-12T01:22:09.323Z,0.80
2019-05-12T01:23:09.318Z,0.80
2019-05-12T01:24:09.296Z,0.90
2019-05-12T01:25:09.287Z,0.80
2019-05-12T01:26:09.275Z,0.90
2019-05-12T01:27:22.290Z,0.80
2019-05-12T01:28:09.296Z,0.80
2019-05-12T01:29:09.237Z,0.90
2019-05-12T01:30:09.239Z,1.00
2019-05-12T01:31:09.242Z,0.90
2019-05-12T01:32:09.215Z,1.00
2019-05-12T01:33:09.286Z,1.10
2019-05-12T01:34:09.195Z,1.00
2019-05-12T01:35:09.177Z,1.20
2019-05-12T01:36:09.239Z,1.20
2019-05-12T01:37:09.214Z,1.00
2019-05-12T01:38:09.915Z,1.30
2019-05-12T01:39:09.170Z,1.00
2019-05-12T01:40:09.285Z,1.10
2019-05-12T01:41:09.112Z,1.10
2019-05-12T01:42:09.185Z,1.20
2019-05-12T01:43:09.238Z,1.20
2019-05-12T01:44:09.095Z,1.10
2019-05-12T01:45:09.963Z,1.20
2019-05-12T01:46:09.051Z,1.20
2019-05-12T01:47:09.041Z,1.30
2019-05-12T01:48:09.497Z,1.30
2019-05-12T01:49:09.021Z,1.30
2019-05-12T01:50:09.365Z,1.10
2019-05-12T01:51:09.010Z,1.30
2019-05-12T01:52:08.978Z,1.40
2019-05-12T01:53:09.038Z,1.30
2019-05-12T01:54:14.685Z,1.30
2019-05-12T01:55:09.937Z,1.10
2019-05-12T01:56:08.933Z,1.40
2019-05-12T01:57:08.956Z,1.20
2019-05-12T01:58:21.844Z,1.40
2019-05-12T01:59:08.895Z,1.40
2019-05-12T02:00:08.923Z,1.60
2019-05-12T02:01:08.877Z,1.40
2019-05-12T02:02:08.863Z,1.60
2019-05-12T02:03:09.485Z,1.40
2019-05-12T02:04:08.839Z,1.50
2019-05-12T02:05:08.983Z,1.20
2019-05-12T02:06:08.834Z,1.40
2019-05-12T02:07:08.811Z,1.50
2019-05-12T02:08:09.728Z,1.10
2019-05-12T02:09:08.790Z,1.40
2019-05-12T02:10:09.442Z,1.20
2019-05-12T02:11:08.771Z,1.40
2019-05-12T02:12:08.758Z,1.60
2019-05-12T02:13:08.751Z,1.20
2019-05-12T02:14:09.401Z,1.40
2019-05-12T02:15:08.722Z,1.30
2019-05-12T02:16:08.716Z,1.20
2019-05-12T02:17:08.859Z,1.40
2019-05-12T02:18:09.273Z,1.30
2019-05-12T02:19:09.211Z,1.20
2019-05-12T02:20:08.688Z,1.40
2019-05-12T02:21:08.653Z,1.50
2019-05-12T02:22:08.730Z,1.30
2019-05-12T02:23:09.212Z,1.50
2019-05-12T02:24:23.312Z,1.40
2019-05-12T02:25:09.644Z,1.20
2019-05-12T02:26:08.597Z,1.30
2019-05-12T02:27:08.590Z,1.50
2019-05-12T02:28:09.467Z,1.30
2019-05-12T02:29:18.910Z,1.40
2019-05-12T02:30:09.832Z,1.40
2019-05-12T02:31:09.447Z,1.30
2019-05-12T02:32:08.536Z,1.30
2019-05-12T02:33:08.526Z,1.30
2019-05-12T02:34:08.576Z,1.40
2019-05-12T02:35:08.509Z,1.20
2019-05-12T02:36:08.523Z,1.40
2019-05-12T02:37:08.477Z,1.20
2019-05-12T02:38:08.507Z,1.20
2019-05-12T02:39:08.481Z,1.20
2019-05-12T02:40:08.452Z,1.30
2019-05-12T02:41:08.432Z,1.50
2019-05-12T02:42:08.446Z,1.50
2019-05-12T02:43:08.440Z,1.30
2019-05-12T02:44:08.406Z,1.20
2019-05-12T02:45:08.386Z,1.50
2019-05-12T02:46:08.380Z,1.20
2019-05-12T02:47:08.436Z,1.30
2019-05-12T02:48:08.359Z,1.20
2019-05-12T02:49:08.341Z,1.40
2019-05-12T02:50:08.331Z,1.50
2019-05-12T02:51:08.333Z,1.30
2019-05-12T02:52:08.318Z,1.40
2019-05-12T02:53:08.368Z,1.40
2019-05-12T02:54:08.290Z,1.40
2019-05-12T02:55:08.287Z,1.40
2019-05-12T02:56:08.265Z,1.50
2019-05-12T02:57:08.255Z,1.40
2019-05-12T02:58:08.278Z,1.40
2019-05-12T02:59:08.269Z,1.30
2019-05-12T03:00:24.020Z,1.50
2019-05-12T03:01:08.214Z,1.50
2019-05-12T03:02:08.198Z,1.40
2019-05-12T03:03:08.300Z,1.40
2019-05-12T03:04:08.194Z,1.60
2019-05-12T03:05:08.170Z,1.40
2019-05-12T03:06:08.206Z,1.50
2019-05-12T03:07:09.005Z,1.60
2019-05-12T03:08:08.148Z,1.60
2019-05-12T03:09:08.131Z,1.50
2019-05-12T03:10:08.124Z,1.70
2019-05-12T03:11:08.110Z,1.50
2019-05-12T03:12:08.102Z,1.50
2019-05-12T03:13:08.082Z,2.00
2019-05-12T03:14:08.113Z,2.00
2019-05-12T03:15:08.078Z,1.60
2019-05-12T03:16:08.049Z,1.80
2019-05-12T03:17:08.034Z,1.90
2019-05-12T03:18:08.024Z,1.60
2019-05-12T03:19:08.025Z,1.70
2019-05-12T03:20:08.025Z,2.00
2019-05-12T03:21:08.001Z,1.80
2019-05-12T03:22:07.982Z,1.80
2019-05-12T03:23:07.971Z,1.70
2019-05-12T03:24:07.952Z,1.90
2019-05-12T03:25:19.929Z,1.70
2019-05-12T03:26:08.945Z,1.90
2019-05-12T03:27:07.934Z,1.90
2019-05-12T03:28:09.389Z,1.70
2019-05-12T03:29:07.900Z,1.70
2019-05-12T03:30:11.678Z,1.90
2019-05-12T03:31:29.872Z,1.80
2019-05-12T03:32:09.109Z,2.10
2019-05-12T03:33:10.534Z,1.60
2019-05-12T03:34:10.846Z,1.70
2019-05-12T03:35:09.069Z,1.90
2019-05-12T03:36:09.855Z,1.70
2019-05-12T03:37:08.518Z,1.70
2019-05-12T03:38:07.819Z,1.80
2019-05-12T03:39:07.788Z,2.00
2019-05-12T03:40:07.786Z,1.70
2019-05-12T03:41:07.762Z,1.90
2019-05-12T03:42:07.749Z,1.60
2019-05-12T03:43:07.756Z,1.80
2019-05-12T03:44:07.739Z,1.80
2019-05-12T03:45:07.723Z,2.00
2019-05-12T03:46:07.707Z,1.90
2019-05-12T03:47:07.695Z,1.90
2019-05-12T03:48:07.705Z,2.00
2019-05-12T03:49:07.678Z,1.80
2019-05-12T03:50:07.662Z,2.00
2019-05-12T03:51:07.711Z,2.20
2019-05-12T03:52:08.522Z,2.00
2019-05-12T03:53:10.833Z,2.20
2019-05-12T03:54:07.623Z,1.80
2019-05-12T03:55:25.979Z,1.90
2019-05-12T03:56:08.594Z,2.20
2019-05-12T03:57:07.581Z,2.30
2019-05-12T03:58:07.566Z,2.20
2019-05-12T03:59:07.603Z,1.90
2019-05-12T04:00:07.654Z,1.80
2019-05-12T04:01:07.560Z,2.30
2019-05-12T04:02:18.580Z,2.10
2019-05-12T04:03:07.512Z,2.00
2019-05-12T04:04:07.520Z,2.10
2019-05-12T04:05:07.516Z,2.10
2019-05-12T04:06:07.479Z,2.30
2019-05-12T04:07:07.469Z,2.10
2019-05-12T04:08:07.476Z,2.20
2019-05-12T04:09:07.479Z,2.30
2019-05-12T04:10:07.442Z,2.30
2019-05-12T04:11:07.425Z,2.30
2019-05-12T04:12:07.416Z,2.20
2019-05-12T04:13:07.404Z,2.50
2019-05-12T04:14:07.393Z,2.40
2019-05-12T04:15:07.429Z,2.30
2019-05-12T04:16:07.372Z,2.50
2019-05-12T04:17:07.357Z,2.20
2019-05-12T04:18:07.351Z,2.20
2019-05-12T04:19:07.333Z,2.20
2019-05-12T04:20:07.327Z,2.70
2019-05-12T04:21:07.348Z,2.50
2019-05-12T04:22:07.296Z,2.90
2019-05-12T04:23:07.346Z,2.40
2019-05-12T04:24:07.275Z,2.40
2019-05-12T04:25:07.256Z,2.70
2019-05-12T04:26:12.286Z,2.90
2019-05-12T04:27:08.248Z,2.80
2019-05-12T04:28:07.230Z,2.70
2019-05-12T04:29:07.237Z,2.60
2019-05-12T04:30:07.205Z,2.50
2019-05-12T04:31:07.193Z,2.40
2019-05-12T04:32:07.228Z,2.60
2019-05-12T04:33:19.605Z,2.60
2019-05-12T04:34:07.164Z,2.80
2019-05-12T04:35:07.146Z,2.60
2019-05-12T04:36:07.201Z,2.70
2019-05-12T04:37:07.148Z,2.70
2019-05-12T04:38:07.128Z,2.70
2019-05-12T04:39:07.114Z,2.60
2019-05-12T04:40:07.089Z,2.50
2019-05-12T04:41:07.079Z,3.10
2019-05-12T04:42:07.079Z,2.40
2019-05-12T04:43:07.093Z,2.80
2019-05-12T04:44:07.057Z,2.80
2019-05-12T04:45:07.046Z,2.70
2019-05-12T04:46:07.020Z,2.50
2019-05-12T04:47:07.019Z,2.80
2019-05-12T04:48:06.998Z,2.60
2019-05-12T04:49:07.033Z,3.00
2019-05-12T04:50:06.973Z,2.80
2019-05-12T04:51:06.967Z,3.20
2019-05-12T04:52:06.952Z,3.00
2019-05-12T04:53:07.100Z,2.90
2019-05-12T04:54:06.930Z,3.40
2019-05-12T04:55:06.969Z,3.40
2019-05-12T04:56:15.506Z,3.40
2019-05-12T04:57:07.901Z,3.10
2019-05-12T04:58:06.973Z,3.70
2019-05-12T04:59:06.930Z,3.40
2019-05-12T05:00:06.904Z,3.60
2019-05-12T05:01:06.910Z,4.00
2019-05-12T05:02:06.843Z,3.50
2019-05-12T05:03:06.830Z,3.70
2019-05-12T05:04:17.178Z,4.30
2019-05-12T05:05:06.834Z,4.10
2019-05-12T05:06:06.801Z,4.10
2019-05-12T05:07:06.823Z,4.00
2019-05-12T05:08:06.771Z,4.00
2019-05-12T05:09:06.766Z,4.70
2019-05-12T05:10:06.757Z,3.90
2019-05-12T05:11:06.739Z,4.10
2019-05-12T05:12:06.724Z,4.20
2019-05-12T05:13:07.161Z,4.40
2019-05-12T05:14:06.699Z,4.70
2019-05-12T05:15:06.704Z,4.80
2019-05-12T05:16:06.689Z,5.00
2019-05-12T05:17:06.685Z,5.10
2019-05-12T05:18:07.068Z,4.80
2019-05-12T05:19:06.656Z,4.40
2019-05-12T05:20:06.643Z,4.90
2019-05-12T05:21:06.625Z,5.00
2019-05-12T05:22:06.616Z,5.00
2019-05-12T05:23:06.599Z,4.90
2019-05-12T05:24:06.604Z,4.90
2019-05-12T05:25:06.581Z,4.70
2019-05-12T05:26:19.847Z,4.80
2019-05-12T05:27:07.551Z,5.20
2019-05-12T05:28:06.544Z,5.00
2019-05-12T05:29:06.564Z,5.20
2019-05-12T05:30:06.542Z,5.20
2019-05-12T05:31:06.514Z,5.60
2019-05-12T05:32:06.502Z,5.30
2019-05-12T05:33:06.489Z,5.50
2019-05-12T05:34:06.476Z,5.60
2019-05-12T05:35:19.155Z,5.50
2019-05-12T05:36:15.215Z,5.60
2019-05-12T05:37:07.443Z,5.80
2019-05-12T05:38:10.872Z,5.00
2019-05-12T05:39:07.430Z,5.50
2019-05-12T05:40:06.431Z,5.30
2019-05-12T05:41:10.470Z,5.50
2019-05-12T05:42:06.389Z,4.80
2019-05-12T05:43:18.187Z,5.30
2019-05-12T05:44:07.367Z,5.80
2019-05-12T05:45:10.527Z,5.60
2019-05-12T05:46:08.114Z,5.50
2019-05-12T05:47:06.328Z,5.20
2019-05-12T05:48:10.002Z,5.60
2019-05-12T05:49:06.315Z,5.00
2019-05-12T05:50:06.300Z,5.50
2019-05-12T05:51:09.105Z,5.40
2019-05-12T05:52:06.277Z,5.90
2019-05-12T05:53:09.295Z,5.00
2019-05-12T05:54:07.249Z,5.20
2019-05-12T05:55:14.574Z,5.50
2019-05-12T05:56:07.258Z,5.30
2019-05-12T05:57:06.373Z,5.30
2019-05-12T05:58:10.272Z,5.30
2019-05-12T05:59:06.201Z,5.10
2019-05-12T06:00:15.978Z,5.30
2019-05-12T06:01:08.331Z,5.20
2019-05-12T06:02:06.185Z,5.10
2019-05-12T06:03:06.280Z,5.00
2019-05-12T06:04:08.667Z,5.00
2019-05-12T06:05:06.129Z,5.10
2019-05-12T06:06:10.855Z,4.90
2019-05-12T06:10:40.456Z,4.60
2019-05-12T06:11:39.021Z,4.80
2019-05-12T06:12:40.427Z,5.00
2019-05-12T06:13:40.331Z,5.10
2019-05-12T06:14:40.833Z,4.80
2019-05-12T06:15:40.904Z,4.70
2019-05-12T06:16:38.942Z,5.30
2019-05-12T06:17:38.919Z,4.50
2019-05-12T06:18:38.919Z,4.80
2019-05-12T06:19:38.948Z,5.00
2019-05-12T06:20:38.924Z,5.10
2019-05-12T06:21:38.879Z,4.70
2019-05-12T06:22:38.868Z,5.00
2019-05-12T06:23:39.285Z,5.00
2019-05-12T06:24:38.883Z,5.00
2019-05-12T06:25:47.372Z,4.80
2019-05-12T06:26:52.882Z,4.60
2019-05-12T06:27:39.807Z,5.00
2019-05-12T06:28:41.135Z,5.10
2019-05-12T06:29:38.793Z,5.10
2019-05-12T06:30:44.458Z,5.10
2019-05-12T06:31:39.767Z,4.80
2019-05-12T06:32:41.163Z,5.00
2019-05-12T06:33:39.740Z,5.10
2019-05-12T06:34:38.727Z,4.50
2019-05-12T06:35:42.250Z,4.90
2019-05-12T06:36:39.710Z,5.00
2019-05-12T06:37:38.708Z,5.10
2019-05-12T06:38:40.488Z,4.90
2019-05-12T06:39:38.669Z,5.10
2019-05-12T06:40:45.747Z,4.60
2019-05-12T06:41:38.652Z,5.30
2019-05-12T06:42:38.644Z,5.00
2019-05-12T06:43:42.387Z,5.20
2019-05-12T06:44:39.617Z,5.00
2019-05-12T06:45:42.465Z,5.30
2019-05-12T06:46:39.639Z,4.60
2019-05-12T06:47:39.315Z,5.70
2019-05-12T06:48:42.467Z,5.60
2019-05-12T06:49:39.584Z,5.40
2019-05-12T06:50:39.278Z,5.40
2019-05-12T06:51:38.572Z,5.50
2019-05-12T06:52:43.253Z,4.80
2019-05-12T06:53:39.515Z,5.50
2019-05-12T06:54:44.609Z,5.40
2019-05-12T06:55:40.180Z,5.40
2019-05-12T06:56:38.542Z,5.60
2019-05-12T06:57:40.034Z,4.90
2019-05-12T06:58:39.546Z,5.80
2019-05-12T06:59:41.938Z,5.60
2019-05-12T07:00:39.434Z,6.30
2019-05-12T07:01:38.428Z,5.80
2019-05-12T07:02:49.031Z,5.10
2019-05-12T07:03:39.413Z,5.20
2019-05-12T07:04:41.252Z,5.10
2019-05-12T07:05:42.481Z,5.30
2019-05-12T07:06:39.370Z,5.60
2019-05-12T07:07:42.005Z,5.20
2019-05-12T07:08:39.353Z,5.00
2019-05-12T07:09:50.118Z,5.30
2019-05-12T07:10:43.634Z,5.10
2019-05-12T07:12:58.917Z,5.30
2019-05-12T07:14:02.210Z,5.30
2019-05-12T07:14:57.115Z,5.00
2019-05-12T07:15:54.298Z,5.00
2019-05-12T07:16:55.331Z,4.80
2019-05-12T07:17:55.721Z,5.00
2019-05-12T07:18:54.047Z,4.60
2019-05-12T07:19:54.654Z,4.90
2019-05-12T07:20:53.741Z,5.60
2019-05-12T07:21:58.212Z,4.90
2019-05-12T07:22:54.862Z,4.80
2019-05-12T07:23:53.462Z,4.80
2019-05-12T07:24:52.806Z,5.00
2019-05-12T07:25:51.726Z,5.30
2019-05-12T07:26:54.759Z,5.00
2019-05-12T07:27:58.708Z,4.80
2019-05-12T07:28:54.069Z,5.00
2019-05-12T07:29:54.094Z,4.80
2019-05-12T07:30:51.709Z,5.30
2019-05-12T07:31:53.689Z,4.80
2019-05-12T07:32:59.351Z,5.10
2019-05-12T07:33:54.212Z,4.80
2019-05-12T07:34:51.627Z,5.00
2019-05-12T07:35:53.433Z,4.90
2019-05-12T07:36:53.824Z,5.30
2019-05-12T07:37:53.451Z,5.20
2019-05-12T07:38:55.807Z,5.60
2019-05-12T07:39:53.837Z,5.20
2019-05-12T07:40:53.558Z,6.00
2019-05-12T07:41:52.650Z,4.60
2019-05-12T07:42:58.830Z,5.50
2019-05-12T07:43:56.761Z,5.80
2019-05-12T07:44:54.378Z,5.40
2019-05-12T07:45:56.652Z,5.40
2019-05-12T07:46:54.071Z,5.00
2019-05-12T07:47:51.483Z,5.80
2019-05-12T07:48:51.492Z,5.40
2019-05-12T07:49:53.625Z,6.00
2019-05-12T07:50:57.785Z,6.00
2019-05-12T07:51:54.210Z,5.60
2019-05-12T07:52:51.424Z,5.70
2019-05-12T07:53:57.163Z,5.40
2019-05-12T07:54:55.748Z,5.30
2019-05-12T07:55:53.253Z,5.50
2019-05-12T07:56:53.824Z,5.90
2019-05-12T07:57:56.003Z,6.30
2019-05-12T07:58:56.484Z,6.00
2019-05-12T07:59:51.355Z,5.80
2019-05-12T08:00:53.979Z,6.00
2019-05-12T08:01:54.912Z,6.40
2019-05-12T08:02:53.539Z,6.10
2019-05-12T08:03:59.340Z,6.30
2019-05-12T08:04:54.164Z,6.40
2019-05-12T08:05:56.393Z,5.90
2019-05-12T08:06:53.853Z,6.40
2019-05-12T08:07:53.447Z,5.90
2019-05-12T08:08:56.583Z,6.10
2019-05-12T08:09:53.642Z,5.70
2019-05-12T08:10:53.533Z,6.00
2019-05-12T08:11:53.897Z,6.00
2019-05-12T08:12:57.421Z,5.80
2019-05-12T08:15:09.638Z,5.60
2019-05-12T08:16:05.949Z,5.90
2019-05-12T08:17:11.069Z,6.00
2019-05-12T08:18:08.060Z,6.20
2019-05-12T08:19:08.369Z,6.10
2019-05-12T08:20:05.906Z,6.20
2019-05-12T08:21:05.939Z,6.50
2019-05-12T08:22:05.887Z,6.20
2019-05-12T08:23:10.319Z,6.20
2019-05-12T08:24:05.859Z,6.00
2019-05-12T08:25:05.851Z,6.50
2019-05-12T08:26:11.958Z,6.10
2019-05-12T08:27:06.853Z,6.40
2019-05-12T08:28:14.844Z,6.20
2019-05-12T08:29:10.292Z,6.10
2019-05-12T08:30:06.793Z,5.70
2019-05-12T08:31:05.776Z,5.80
2019-05-12T08:32:09.822Z,5.80
2019-05-12T08:33:09.646Z,5.50
2019-05-12T08:34:05.748Z,5.70
2019-05-12T08:35:05.743Z,5.90
2019-05-12T08:36:11.523Z,5.80
2019-05-12T08:37:06.711Z,5.60
2019-05-12T08:38:05.715Z,5.50
2019-05-12T08:39:11.336Z,5.20
2019-05-12T08:40:07.682Z,5.50
2019-05-12T08:41:05.679Z,5.70
2019-05-12T08:42:05.667Z,5.30
2019-05-12T08:43:10.326Z,6.00
2019-05-12T08:44:06.632Z,5.90
2019-05-12T08:45:25.060Z,5.70
2019-05-12T08:46:11.922Z,6.00
2019-05-12T08:47:06.598Z,5.80
2019-05-12T08:48:10.141Z,6.10
2019-05-12T08:49:06.583Z,5.60
2019-05-12T08:50:05.566Z,5.30
2019-05-12T08:51:13.942Z,6.10
2019-05-12T08:52:06.546Z,5.40
2019-05-12T08:53:05.531Z,5.00
2019-05-12T08:54:08.109Z,5.10
2019-05-12T08:55:05.588Z,5.00
2019-05-12T08:56:13.372Z,5.10
2019-05-12T08:57:06.483Z,5.10
2019-05-12T08:58:05.477Z,5.10
2019-05-12T08:59:09.728Z,4.90
2019-05-12T09:00:08.556Z,4.90
2019-05-12T09:01:05.444Z,5.20
2019-05-12T09:02:07.430Z,5.10
2019-05-12T09:03:06.420Z,5.00
2019-05-12T09:04:09.231Z,4.80
2019-05-12T09:05:06.398Z,4.90
2019-05-12T09:06:09.319Z,5.10
2019-05-12T09:07:06.385Z,5.10
2019-05-12T09:08:05.366Z,4.60
2019-05-12T09:09:05.375Z,4.50
2019-05-12T09:10:05.341Z,4.30
2019-05-12T09:11:06.171Z,5.00
2019-05-12T09:12:05.372Z,4.60
2019-05-12T09:13:05.308Z,4.70
2019-05-12T09:14:05.948Z,4.90
2019-05-12T09:15:08.061Z,4.80
2019-05-12T09:16:18.450Z,4.50
2019-05-12T09:17:13.891Z,5.00
2019-05-12T09:18:05.267Z,5.20
2019-05-12T09:19:10.149Z,5.10
2019-05-12T09:20:08.365Z,4.80
2019-05-12T09:21:05.216Z,4.80
2019-05-12T09:22:16.285Z,4.80
2019-05-12T09:23:06.206Z,5.10
2019-05-12T09:24:15.595Z,5.10
2019-05-12T09:25:08.353Z,4.90
2019-05-12T09:26:05.168Z,5.20
2019-05-12T09:27:08.817Z,5.50
2019-05-12T09:28:05.140Z,5.20
2019-05-12T09:29:07.419Z,5.40
2019-05-12T09:30:09.527Z,5.20
2019-05-12T09:31:05.115Z,4.90
2019-05-12T09:32:09.358Z,5.20
2019-05-12T09:33:05.091Z,5.30
2019-05-12T09:34:11.475Z,5.10
2019-05-12T09:35:06.075Z,4.90
2019-05-12T09:36:05.048Z,5.00
2019-05-12T09:37:05.040Z,5.00
2019-05-12T09:38:06.221Z,5.00
2019-05-12T09:39:05.853Z,5.40
2019-05-12T09:40:05.045Z,5.50
2019-05-12T09:41:05.416Z,5.40
2019-05-12T09:42:04.981Z,5.20
2019-05-12T09:43:09.239Z,5.60
2019-05-12T09:44:05.961Z,5.90
2019-05-12T09:45:08.616Z,5.70
2019-05-12T09:46:05.950Z,5.60
2019-05-12T09:47:07.609Z,5.70
2019-05-12T09:48:09.093Z,5.80
2019-05-12T09:49:04.906Z,5.90
2019-05-12T09:50:09.769Z,5.90
2019-05-12T09:51:08.026Z,5.90
2019-05-12T09:52:04.868Z,6.00
2019-05-12T09:53:09.310Z,6.10
2019-05-12T09:54:05.846Z,6.20
2019-05-12T09:55:15.301Z,5.70
2019-05-12T09:56:04.828Z,5.90
2019-05-12T09:57:04.810Z,5.70
2019-05-12T09:58:04.808Z,5.90
2019-05-12T09:59:17.265Z,6.10
2019-05-12T10:00:05.790Z,6.30
2019-05-12T10:01:04.770Z,6.30
2019-05-12T10:02:04.758Z,6.10
2019-05-12T10:03:08.099Z,6.90
2019-05-12T10:04:04.736Z,6.80
2019-05-12T10:05:04.729Z,6.40
2019-05-12T10:06:04.713Z,6.80
2019-05-12T10:07:04.711Z,6.50
2019-05-12T10:08:04.910Z,6.50
2019-05-12T10:09:08.818Z,6.70
2019-05-12T10:10:05.690Z,6.10
2019-05-12T10:11:04.661Z,6.50
2019-05-12T10:12:05.553Z,6.60
2019-05-12T10:13:05.050Z,6.50
2019-05-12T10:14:06.492Z,6.60
2019-05-12T10:15:05.626Z,6.30
2019-05-12T10:16:08.681Z,6.10
2019-05-12T10:17:04.586Z,6.10
2019-05-12T10:18:10.790Z,6.60
2019-05-12T10:19:05.602Z,6.10
2019-05-12T10:20:04.552Z,5.30
2019-05-12T10:21:04.544Z,5.70
2019-05-12T10:22:04.535Z,5.60
2019-05-12T10:23:04.725Z,5.20
2019-05-12T10:24:05.127Z,5.00
2019-05-12T10:25:04.517Z,5.10
2019-05-12T10:26:14.997Z,5.10
2019-05-12T10:27:04.472Z,5.00
2019-05-12T10:28:11.350Z,5.30
2019-05-12T10:29:16.353Z,4.30
2019-05-12T10:30:11.866Z,4.50
2019-05-12T10:31:05.427Z,5.00
2019-05-12T10:32:04.429Z,4.70
2019-05-12T10:33:04.409Z,4.70
2019-05-12T10:34:04.400Z,4.70
2019-05-12T10:35:04.382Z,4.90
2019-05-12T10:36:08.285Z,4.40
2019-05-12T10:37:04.367Z,4.40
2019-05-12T10:38:09.177Z,4.60
2019-05-12T10:39:05.344Z,4.50
2019-05-12T10:40:04.331Z,4.30
2019-05-12T10:41:04.494Z,4.70
2019-05-12T10:42:04.343Z,4.10
2019-05-12T10:43:04.839Z,4.10
2019-05-12T10:44:04.305Z,4.30
2019-05-12T10:45:04.425Z,3.80
2019-05-12T10:46:04.382Z,4.00
2019-05-12T10:47:04.597Z,4.10
2019-05-12T10:48:04.245Z,3.80
2019-05-12T10:49:04.235Z,3.90
2019-05-12T10:50:04.220Z,3.80
2019-05-12T10:51:04.208Z,3.80
2019-05-12T10:52:04.216Z,3.90
2019-05-12T10:53:04.750Z,3.70
2019-05-12T10:54:11.820Z,3.90
2019-05-12T10:55:05.164Z,3.80
2019-05-12T10:56:04.157Z,3.30
2019-05-12T10:57:15.379Z,3.70
2019-05-12T10:58:06.885Z,3.60
2019-05-12T10:59:04.376Z,3.10
2019-05-12T11:00:04.325Z,3.70
2019-05-12T11:01:08.311Z,3.70
2019-05-12T11:02:04.088Z,3.70
2019-05-12T11:03:10.235Z,3.40
2019-05-12T11:04:05.069Z,3.80
2019-05-12T11:05:04.059Z,3.50
2019-05-12T11:06:07.459Z,4.00
2019-05-12T11:07:04.654Z,3.40
2019-05-12T11:08:10.917Z,3.90
2019-05-12T11:09:05.017Z,3.80
2019-05-12T11:10:15.356Z,3.70
2019-05-12T11:11:04.985Z,4.00
2019-05-12T11:12:03.974Z,4.20
2019-05-12T11:13:08.445Z,4.20
2019-05-12T11:14:04.985Z,4.30
2019-05-12T11:15:06.702Z,4.60
2019-05-12T11:16:03.978Z,4.30
2019-05-12T11:17:07.689Z,4.50
2019-05-12T11:18:04.915Z,4.80
2019-05-12T11:19:06.459Z,4.90
2019-05-12T11:20:04.938Z,4.60
2019-05-12T11:21:03.876Z,4.80
2019-05-12T11:22:03.909Z,4.70
2019-05-12T11:23:03.866Z,4.70
2019-05-12T11:24:03.961Z,4.70
2019-05-12T11:25:04.412Z,4.60
2019-05-12T11:26:04.053Z,4.60
2019-05-12T11:27:04.207Z,4.70
2019-05-12T11:28:16.577Z,4.70
2019-05-12T11:29:03.897Z,5.10
2019-05-12T11:30:04.387Z,5.30
2019-05-12T11:31:03.786Z,5.10
2019-05-12T11:32:03.761Z,4.60
2019-05-12T11:33:04.526Z,5.00
2019-05-12T11:34:04.818Z,5.00
2019-05-12T11:35:04.181Z,4.70
2019-05-12T11:36:04.423Z,5.50
2019-05-12T11:37:03.776Z,5.60
2019-05-12T11:38:04.410Z,5.60
2019-05-12T11:39:03.732Z,5.10
2019-05-12T11:40:04.335Z,5.00
2019-05-12T11:41:04.218Z,5.20
2019-05-12T11:42:04.232Z,5.30
2019-05-12T11:43:04.472Z,4.70
2019-05-12T11:44:04.050Z,5.20
2019-05-12T11:45:03.602Z,5.20
2019-05-12T11:46:03.595Z,5.30
2019-05-12T11:47:03.872Z,5.20
2019-05-12T11:48:08.410Z,5.60
2019-05-12T11:49:04.566Z,5.00
2019-05-12T11:50:08.036Z,5.10
2019-05-12T11:51:04.544Z,5.20
2019-05-12T11:52:07.643Z,5.30
2019-05-12T11:53:04.569Z,5.50
2019-05-12T11:54:09.003Z,5.60
2019-05-12T11:55:04.498Z,5.70
2019-05-12T11:56:07.548Z,5.70
2019-05-12T11:57:04.473Z,5.40
2019-05-12T11:58:06.857Z,5.20
2019-05-12T12:00:17.868Z,5.40
2019-05-12T12:01:17.852Z,4.80
2019-05-12T12:02:20.246Z,5.30
2019-05-12T12:03:18.827Z,5.30
2019-05-12T12:04:17.825Z,5.00
2019-05-12T12:05:17.821Z,5.00
2019-05-12T12:06:17.805Z,5.70
2019-05-12T12:07:17.789Z,5.80
2019-05-12T12:08:17.781Z,5.20
2019-05-12T12:09:18.996Z,5.70
2019-05-12T12:10:17.797Z,5.50
2019-05-12T12:11:24.232Z,5.20
2019-05-12T12:12:18.737Z,5.00
2019-05-12T12:13:19.257Z,5.10
2019-05-12T12:14:18.709Z,5.20
2019-05-12T12:15:20.509Z,5.30
2019-05-12T12:17:31.270Z,5.00
2019-05-12T12:18:28.446Z,5.30
2019-05-12T12:19:34.934Z,5.30
2019-05-12T12:20:28.429Z,5.80
2019-05-12T12:21:27.422Z,5.80
2019-05-12T12:22:29.764Z,5.00
2019-05-12T12:23:27.439Z,5.20
2019-05-12T12:24:31.430Z,5.50
2019-05-12T12:25:27.405Z,5.50
2019-05-12T12:26:30.272Z,5.90
2019-05-12T12:27:27.357Z,5.50
2019-05-12T12:28:27.346Z,5.80
2019-05-12T12:29:27.346Z,5.60
2019-05-12T12:30:27.321Z,5.30
2019-05-12T12:31:29.616Z,5.70
2019-05-12T12:32:28.295Z,5.70
2019-05-12T12:33:30.896Z,5.80
2019-05-12T12:34:30.276Z,5.40
2019-05-12T12:35:27.263Z,5.60
2019-05-12T12:36:27.253Z,5.60
2019-05-12T12:37:27.245Z,5.70
2019-05-12T12:38:27.233Z,5.30
2019-05-12T12:39:27.228Z,5.50
2019-05-12T12:40:28.805Z,5.50
2019-05-12T12:41:27.199Z,5.40
2019-05-12T12:42:30.440Z,5.40
2019-05-12T12:43:28.180Z,5.20
2019-05-12T12:44:27.181Z,5.20
2019-05-12T12:45:30.305Z,5.30
2019-05-12T12:46:28.147Z,5.40
2019-05-12T12:47:38.022Z,5.00
2019-05-12T12:48:29.699Z,5.70
2019-05-12T12:49:29.321Z,5.20
2019-05-12T12:50:30.536Z,5.50
2019-05-12T12:51:27.092Z,5.50
2019-05-12T12:52:27.078Z,5.80
2019-05-12T12:53:27.594Z,5.10
2019-05-12T12:54:27.065Z,5.20
2019-05-12T12:55:27.044Z,5.80
2019-05-12T12:56:30.028Z,5.30
2019-05-12T12:57:27.042Z,5.50
2019-05-12T12:58:31.371Z,5.40
2019-05-12T12:59:28.005Z,5.30
2019-05-12T13:00:32.131Z,5.50
2019-05-12T13:01:30.894Z,5.60
2019-05-12T13:02:26.976Z,5.50
2019-05-12T13:03:29.763Z,5.30
2019-05-12T13:04:28.849Z,5.50
2019-05-12T13:05:26.935Z,5.80
2019-05-12T13:06:26.925Z,5.10
2019-05-12T13:07:26.959Z,5.10
2019-05-12T13:08:26.912Z,5.90
2019-05-12T13:09:26.889Z,4.80
2019-05-12T13:10:26.878Z,4.40
2019-05-12T13:11:33.178Z,4.20
2019-05-12T13:12:27.868Z,4.50
2019-05-12T13:13:26.858Z,4.60
2019-05-12T13:14:33.483Z,4.30
2019-05-12T13:15:27.832Z,3.80
2019-05-12T13:16:26.819Z,3.80
2019-05-12T13:17:35.309Z,4.40
2019-05-12T13:18:38.716Z,4.20
2019-05-12T13:19:26.781Z,4.60
2019-05-12T13:20:26.770Z,4.60
2019-05-12T13:21:26.764Z,4.40
2019-05-12T13:22:29.460Z,4.20
2019-05-12T13:23:36.758Z,4.40
2019-05-12T13:24:27.742Z,4.40
2019-05-12T13:25:26.719Z,4.50
2019-05-12T13:26:26.705Z,4.40